createdAt,value
2023-08-02T06:21:09.209Z,2.47
2023-08-02T06:24:12.598Z,2.47
2023-08-02T06:27:16.007Z,2.50
2023-08-02T06:30:19.434Z,2.73
2023-08-02T06:33:22.682Z,2.30
2023-08-02T06:36:27.151Z,2.50
2023-08-02T06:39:30.280Z,2.50
2023-08-02T06:42:33.359Z,2.13
2023-08-02T06:45:36.436Z,2.33
2023-08-02T06:48:39.482Z,2.27
2023-08-02T06:51:44.111Z,2.40
2023-08-02T06:54:47.587Z,2.50
2023-08-02T06:57:50.725Z,2.35
2023-08-02T07:00:53.888Z,2.13
2023-08-02T07:03:58.177Z,2.30
2023-08-02T07:07:03.081Z,1.90
2023-08-02T07:10:07.106Z,2.45
2023-08-02T07:13:10.292Z,2.15
2023-08-02T07:16:13.987Z,2.00
2023-08-02T07:19:17.154Z,1.93
2023-08-02T07:22:23.711Z,1.83
2023-08-02T07:25:26.802Z,2.17
2023-08-02T07:28:29.945Z,2.10
2023-08-02T07:31:33.260Z,2.00
2023-08-02T07:34:36.556Z,2.20
2023-08-02T07:37:43.678Z,2.10
2023-08-02T07:40:47.013Z,1.92
2023-08-02T07:43:50.055Z,2.03
2023-08-02T07:46:53.225Z,1.90
2023-08-02T07:49:56.580Z,1.87
2023-08-02T07:53:01.003Z,1.90
2023-08-02T07:56:04.227Z,1.70
2023-08-02T07:59:07.300Z,2.10
2023-08-02T08:02:11.803Z,2.03
2023-08-02T08:05:14.847Z,1.90
2023-08-02T08:08:22.514Z,1.90
2023-08-02T08:11:30.337Z,1.65
2023-08-02T08:14:34.362Z,1.67
2023-08-02T08:17:37.586Z,1.73
2023-08-02T08:20:40.922Z,2.20
2023-08-02T08:23:45.959Z,1.90
2023-08-02T08:26:59.969Z,1.77
2023-08-02T08:30:04.419Z,1.75
2023-08-02T08:33:11.700Z,1.73
2023-08-02T08:36:15.463Z,1.60
2023-08-02T08:39:22.846Z,1.60
2023-08-02T08:42:26.666Z,1.70
2023-08-02T08:46:06.569Z,1.83
2023-08-02T08:49:10.290Z,1.70
2023-08-02T08:52:14.824Z,1.80
2023-08-02T08:55:19.898Z,1.98
2023-08-02T08:58:23.016Z,1.67
2023-08-02T09:01:26.531Z,1.90
2023-08-02T09:04:32.052Z,1.60
2023-08-02T09:07:35.310Z,1.80
2023-08-02T09:10:40.108Z,1.80
2023-08-02T09:13:43.858Z,1.80
2023-08-02T09:16:58.542Z,1.80
2023-08-02T09:20:12.158Z,1.90
2023-08-02T09:23:17.122Z,1.80
2023-08-02T09:26:22.874Z,1.70
2023-08-02T09:29:26.264Z,1.85
2023-08-02T09:32:29.570Z,1.50
2023-08-02T09:35:51.744Z,1.90
2023-08-02T09:38:59.170Z,1.97
2023-08-02T09:42:12.674Z,1.60
2023-08-02T09:45:16.243Z,1.70
2023-08-02T09:48:19.420Z,1.85
2023-08-02T09:51:40.723Z,1.70
2023-08-02T09:54:44.117Z,1.77
2023-08-02T09:57:50.270Z,1.73
2023-08-02T10:00:53.739Z,2.00
2023-08-02T10:04:01.436Z,1.67
2023-08-02T10:07:08.165Z,1.63
2023-08-02T10:10:16.442Z,1.70
2023-08-02T10:13:26.793Z,1.80
2023-08-02T10:16:30.570Z,1.70
2023-08-02T10:19:40.433Z,1.90
2023-08-02T10:22:44.962Z,1.50
2023-08-02T10:25:48.879Z,1.67
2023-08-02T10:28:54.937Z,1.63
2023-08-02T10:32:13.073Z,1.67
2023-08-02T10:35:16.350Z,1.70
2023-08-02T10:38:19.629Z,1.80
2023-08-02T10:41:24.907Z,1.60
2023-08-02T10:44:30.458Z,1.70
2023-08-02T10:47:34.882Z,1.60
2023-08-02T10:50:46.340Z,1.60
2023-08-02T10:54:14.000Z,1.70
2023-08-02T10:57:17.140Z,1.50
2023-08-02T11:00:25.210Z,1.55
2023-08-02T11:03:30.902Z,1.55
2023-08-02T11:06:36.160Z,1.60
2023-08-02T11:09:39.363Z,1.43
2023-08-02T11:12:42.479Z,1.67
2023-08-02T11:15:47.862Z,1.80
2023-08-02T11:18:52.162Z,1.80
2023-08-02T11:22:01.203Z,1.50
2023-08-02T11:25:08.059Z,2.20
2023-08-02T11:28:12.306Z,1.73
2023-08-02T11:31:18.590Z,1.90
2023-08-02T11:34:22.800Z,1.80
2023-08-02T11:37:26.282Z,1.83
2023-08-02T11:40:36.777Z,1.70
2023-08-02T11:43:40.408Z,1.50
2023-08-02T11:46:46.389Z,1.60
2023-08-02T11:49:53.541Z,1.90
2023-08-02T11:53:08.770Z,1.63
2023-08-02T11:56:12.585Z,1.80
2023-08-02T11:59:16.191Z,1.63
2023-08-02T12:03:10.206Z,1.50
2023-08-02T12:06:22.549Z,1.60
2023-08-02T12:09:41.997Z,1.70
2023-08-02T12:12:45.219Z,1.70
2023-08-02T12:16:02.485Z,2.10
2023-08-02T12:19:05.602Z,2.00
2023-08-02T12:22:10.179Z,1.60
2023-08-02T12:25:13.907Z,1.63
2023-08-02T12:28:17.494Z,1.90
2023-08-02T12:31:20.678Z,1.67
